sensor_id;sensor_type;location;lat;lon;timestamp;temperature;humidity
42245;DHT22;27912;51.828;5.688;2023-05-10T00:00:00;13.50;99.90
42245;DHT22;27912;51.828;5.688;2023-05-10T00:02:26;13.50;99.90
42245;DHT22;27912;51.828;5.688;2023-05-10T00:04:52;13.50;99.90
42245;DHT22;27912;51.828;5.688;2023-05-10T00:07:17;13.50;99.90
42245;DHT22;27912;51.828;5.688;2023-05-10T00:09:43;13.50;99.90
42245;DHT22;27912;51.828;5.688;2023-05-10T00:12:09;13.50;99.90
42245;DHT22;27912;51.828;5.688;2023-05-10T00:14:35;13.40;99.90
42245;DHT22;27912;51.828;5.688;2023-05-10T00:17:00;13.40;99.90
42245;DHT22;27912;51.828;5.688;2023-05-10T00:19:26;13.40;99.90
42245;DHT22;27912;51.828;5.688;2023-05-10T00:21:52;13.40;99.90
42245;DHT22;27912;51.828;5.688;2023-05-10T00:24:17;13.40;99.90
42245;DHT22;27912;51.828;5.688;2023-05-10T00:26:43;13.40;99.90
42245;DHT22;27912;51.828;5.688;2023-05-10T00:29:08;13.40;99.90
42245;DHT22;27912;51.828;5.688;2023-05-10T00:31:34;13.40;99.90
42245;DHT22;27912;51.828;5.688;2023-05-10T00:33:59;13.40;99.90
42245;DHT22;27912;51.828;5.688;2023-05-10T00:36:25;13.40;99.90
42245;DHT22;27912;51.828;5.688;2023-05-10T00:38:51;13.40;99.90
42245;DHT22;27912;51.828;5.688;2023-05-10T00:41:16;13.40;99.90
42245;DHT22;27912;51.828;5.688;2023-05-10T00:43:42;13.40;99.90
42245;DHT22;27912;51.828;5.688;2023-05-10T00:46:08;13.40;99.90
42245;DHT22;27912;51.828;5.688;2023-05-10T00:48:33;13.50;99.90
42245;DHT22;27912;51.828;5.688;2023-05-10T00:51:01;13.40;99.90
42245;DHT22;27912;51.828;5.688;2023-05-10T00:53:27;13.50;99.90
42245;DHT22;27912;51.828;5.688;2023-05-10T00:55:52;13.50;99.90
42245;DHT22;27912;51.828;5.688;2023-05-10T00:58:18;13.40;99.90
42245;DHT22;27912;51.828;5.688;2023-05-10T01:00:46;13.50;99.90
42245;DHT22;27912;51.828;5.688;2023-05-10T01:03:12;13.50;99.90
42245;DHT22;27912;51.828;5.688;2023-05-10T01:05:38;13.40;99.90
42245;DHT22;27912;51.828;5.688;2023-05-10T01:08:04;13.40;99.90
42245;DHT22;27912;51.828;5.688;2023-05-10T01:10:30;13.40;99.90
42245;DHT22;27912;51.828;5.688;2023-05-10T01:12:56;13.50;99.90
42245;DHT22;27912;51.828;5.688;2023-05-10T01:15:22;13.40;99.90
42245;DHT22;27912;51.828;5.688;2023-05-10T01:17:48;13.40;99.90
42245;DHT22;27912;51.828;5.688;2023-05-10T01:20:14;13.50;99.90
42245;DHT22;27912;51.828;5.688;2023-05-10T01:34:15;13.50;99.90
42245;DHT22;27912;51.828;5.688;2023-05-10T01:36:52;13.40;99.90
42245;DHT22;27912;51.828;5.688;2023-05-10T01:39:55;13.40;99.90
42245;DHT22;27912;51.828;5.688;2023-05-10T01:42:23;13.40;99.90
42245;DHT22;27912;51.828;5.688;2023-05-10T01:47:46;13.40;99.90
42245;DHT22;27912;51.828;5.688;2023-05-10T01:50:18;13.40;99.90
42245;DHT22;27912;51.828;5.688;2023-05-10T01:52:50;13.30;99.90
42245;DHT22;27912;51.828;5.688;2023-05-10T01:55:19;13.30;99.90
42245;DHT22;27912;51.828;5.688;2023-05-10T01:57:47;13.30;99.90
42245;DHT22;27912;51.828;5.688;2023-05-10T02:00:14;13.20;99.90
42245;DHT22;27912;51.828;5.688;2023-05-10T02:02:44;13.20;99.90
42245;DHT22;27912;51.828;5.688;2023-05-10T02:05:12;13.20;99.90
42245;DHT22;27912;51.828;5.688;2023-05-10T02:07:41;13.20;99.90
42245;DHT22;27912;51.828;5.688;2023-05-10T02:10:07;13.20;99.90
42245;DHT22;27912;51.828;5.688;2023-05-10T02:12:39;13.20;99.90
42245;DHT22;27912;51.828;5.688;2023-05-10T02:15:07;13.10;99.90
42245;DHT22;27912;51.828;5.688;2023-05-10T02:17:33;13.10;99.90
42245;DHT22;27912;51.828;5.688;2023-05-10T02:20:00;13.00;99.90
42245;DHT22;27912;51.828;5.688;2023-05-10T02:22:27;13.00;99.90
42245;DHT22;27912;51.828;5.688;2023-05-10T02:24:55;12.90;99.90
42245;DHT22;27912;51.828;5.688;2023-05-10T02:27:24;12.90;99.90
42245;DHT22;27912;51.828;5.688;2023-05-10T02:29:51;12.80;99.90
42245;DHT22;27912;51.828;5.688;2023-05-10T02:32:17;12.80;99.90
42245;DHT22;27912;51.828;5.688;2023-05-10T02:34:44;12.80;99.90
42245;DHT22;27912;51.828;5.688;2023-05-10T02:37:14;12.70;99.90
42245;DHT22;27912;51.828;5.688;2023-05-10T02:39:41;12.70;99.90
42245;DHT22;27912;51.828;5.688;2023-05-10T02:42:18;12.70;99.90
42245;DHT22;27912;51.828;5.688;2023-05-10T02:44:46;12.80;99.90
42245;DHT22;27912;51.828;5.688;2023-05-10T02:47:13;12.70;99.90
42245;DHT22;27912;51.828;5.688;2023-05-10T02:49:38;12.80;99.90
42245;DHT22;27912;51.828;5.688;2023-05-10T02:52:05;12.80;99.90
42245;DHT22;27912;51.828;5.688;2023-05-10T02:54:45;12.80;99.90
42245;DHT22;27912;51.828;5.688;2023-05-10T02:57:16;12.90;99.90
42245;DHT22;27912;51.828;5.688;2023-05-10T02:59:44;12.90;99.90
42245;DHT22;27912;51.828;5.688;2023-05-10T03:02:12;12.90;99.90
42245;DHT22;27912;51.828;5.688;2023-05-10T03:04:38;12.90;99.90
42245;DHT22;27912;51.828;5.688;2023-05-10T03:07:04;12.90;99.90
42245;DHT22;27912;51.828;5.688;2023-05-10T03:09:30;12.90;99.90
42245;DHT22;27912;51.828;5.688;2023-05-10T03:12:31;13.00;99.90
42245;DHT22;27912;51.828;5.688;2023-05-10T03:17:55;12.90;99.90
42245;DHT22;27912;51.828;5.688;2023-05-10T03:20:26;13.00;99.90
42245;DHT22;27912;51.828;5.688;2023-05-10T03:23:04;13.00;99.90
42245;DHT22;27912;51.828;5.688;2023-05-10T03:25:33;13.00;99.90
42245;DHT22;27912;51.828;5.688;2023-05-10T03:28:01;13.00;99.90
42245;DHT22;27912;51.828;5.688;2023-05-10T03:30:27;13.00;99.90
42245;DHT22;27912;51.828;5.688;2023-05-10T03:32:53;13.00;99.90
42245;DHT22;27912;51.828;5.688;2023-05-10T03:35:19;13.00;99.90
42245;DHT22;27912;51.828;5.688;2023-05-10T03:37:45;13.00;99.90
42245;DHT22;27912;51.828;5.688;2023-05-10T03:40:11;13.00;99.90
42245;DHT22;27912;51.828;5.688;2023-05-10T03:42:36;13.00;99.90
42245;DHT22;27912;51.828;5.688;2023-05-10T03:45:02;13.00;99.90
42245;DHT22;27912;51.828;5.688;2023-05-10T03:47:28;13.00;99.90
42245;DHT22;27912;51.828;5.688;2023-05-10T03:49:54;13.00;99.90
42245;DHT22;27912;51.828;5.688;2023-05-10T03:52:20;13.00;99.90
42245;DHT22;27912;51.828;5.688;2023-05-10T03:54:45;13.00;99.90
42245;DHT22;27912;51.828;5.688;2023-05-10T03:57:11;13.00;99.90
42245;DHT22;27912;51.828;5.688;2023-05-10T03:59:37;13.00;99.90
42245;DHT22;27912;51.828;5.688;2023-05-10T04:02:02;13.00;99.90
42245;DHT22;27912;51.828;5.688;2023-05-10T04:04:28;13.00;99.90
42245;DHT22;27912;51.828;5.688;2023-05-10T04:06:53;13.00;99.90
42245;DHT22;27912;51.828;5.688;2023-05-10T04:09:20;13.00;99.90
42245;DHT22;27912;51.828;5.688;2023-05-10T04:11:45;13.00;99.90
42245;DHT22;27912;51.828;5.688;2023-05-10T04:14:11;13.00;99.90
42245;DHT22;27912;51.828;5.688;2023-05-10T04:16:36;13.00;99.90
42245;DHT22;27912;51.828;5.688;2023-05-10T04:19:02;13.00;99.90
42245;DHT22;27912;51.828;5.688;2023-05-10T04:21:29;13.00;99.90
42245;DHT22;27912;51.828;5.688;2023-05-10T04:23:54;13.10;99.90
42245;DHT22;27912;51.828;5.688;2023-05-10T04:26:20;13.00;99.90
42245;DHT22;27912;51.828;5.688;2023-05-10T04:28:49;13.00;99.90
42245;DHT22;27912;51.828;5.688;2023-05-10T04:31:18;13.00;99.90
42245;DHT22;27912;51.828;5.688;2023-05-10T04:33:44;13.00;99.90
42245;DHT22;27912;51.828;5.688;2023-05-10T04:36:15;13.00;99.90
42245;DHT22;27912;51.828;5.688;2023-05-10T04:38:47;13.00;99.90
42245;DHT22;27912;51.828;5.688;2023-05-10T04:41:13;13.10;99.90
42245;DHT22;27912;51.828;5.688;2023-05-10T04:43:39;13.00;99.90
42245;DHT22;27912;51.828;5.688;2023-05-10T04:46:06;13.00;99.90
42245;DHT22;27912;51.828;5.688;2023-05-10T04:48:35;13.00;99.90
42245;DHT22;27912;51.828;5.688;2023-05-10T04:51:06;13.10;99.90
42245;DHT22;27912;51.828;5.688;2023-05-10T04:53:35;13.10;99.90
42245;DHT22;27912;51.828;5.688;2023-05-10T04:56:01;13.10;99.90
42245;DHT22;27912;51.828;5.688;2023-05-10T04:58:30;13.10;99.90
42245;DHT22;27912;51.828;5.688;2023-05-10T05:01:09;13.10;99.90
42245;DHT22;27912;51.828;5.688;2023-05-10T05:03:38;13.10;99.90
42245;DHT22;27912;51.828;5.688;2023-05-10T05:06:04;13.10;99.90
42245;DHT22;27912;51.828;5.688;2023-05-10T05:08:33;13.20;99.90
42245;DHT22;27912;51.828;5.688;2023-05-10T05:10:59;13.20;99.90
42245;DHT22;27912;51.828;5.688;2023-05-10T05:13:24;13.30;99.90
42245;DHT22;27912;51.828;5.688;2023-05-10T05:15:50;13.30;99.90
42245;DHT22;27912;51.828;5.688;2023-05-10T05:18:15;13.40;99.90
42245;DHT22;27912;51.828;5.688;2023-05-10T05:20:41;13.40;99.90
42245;DHT22;27912;51.828;5.688;2023-05-10T05:23:07;13.50;99.90
42245;DHT22;27912;51.828;5.688;2023-05-10T05:25:33;13.50;99.90
42245;DHT22;27912;51.828;5.688;2023-05-10T05:27:58;13.60;99.90
42245;DHT22;27912;51.828;5.688;2023-05-10T05:30:24;13.60;99.90
42245;DHT22;27912;51.828;5.688;2023-05-10T05:32:49;13.60;99.90
42245;DHT22;27912;51.828;5.688;2023-05-10T05:35:15;13.60;99.90
42245;DHT22;27912;51.828;5.688;2023-05-10T05:37:41;13.60;99.90
42245;DHT22;27912;51.828;5.688;2023-05-10T05:40:07;13.60;99.90
42245;DHT22;27912;51.828;5.688;2023-05-10T05:42:32;13.60;99.90
42245;DHT22;27912;51.828;5.688;2023-05-10T05:44:58;13.70;99.90
42245;DHT22;27912;51.828;5.688;2023-05-10T05:47:24;13.70;99.90
42245;DHT22;27912;51.828;5.688;2023-05-10T05:49:50;13.80;99.90
42245;DHT22;27912;51.828;5.688;2023-05-10T05:52:15;13.90;99.90
42245;DHT22;27912;51.828;5.688;2023-05-10T05:54:41;13.90;99.90
42245;DHT22;27912;51.828;5.688;2023-05-10T05:57:06;13.90;99.90
42245;DHT22;27912;51.828;5.688;2023-05-10T05:59:32;13.90;99.90
42245;DHT22;27912;51.828;5.688;2023-05-10T06:01:58;14.00;99.90
42245;DHT22;27912;51.828;5.688;2023-05-10T06:04:24;14.00;99.90
42245;DHT22;27912;51.828;5.688;2023-05-10T06:06:49;14.10;99.90
42245;DHT22;27912;51.828;5.688;2023-05-10T06:09:15;14.20;99.90
42245;DHT22;27912;51.828;5.688;2023-05-10T06:11:41;14.20;99.90
42245;DHT22;27912;51.828;5.688;2023-05-10T06:14:06;14.20;99.90
42245;DHT22;27912;51.828;5.688;2023-05-10T06:16:34;14.10;99.90
42245;DHT22;27912;51.828;5.688;2023-05-10T06:18:59;14.00;99.90
42245;DHT22;27912;51.828;5.688;2023-05-10T06:21:25;14.00;99.90
42245;DHT22;27912;51.828;5.688;2023-05-10T06:23:50;13.90;99.90
42245;DHT22;27912;51.828;5.688;2023-05-10T06:26:16;13.80;99.90
42245;DHT22;27912;51.828;5.688;2023-05-10T06:28:42;13.70;99.90
42245;DHT22;27912;51.828;5.688;2023-05-10T06:31:07;13.70;99.90
42245;DHT22;27912;51.828;5.688;2023-05-10T06:33:33;13.70;99.90
42245;DHT22;27912;51.828;5.688;2023-05-10T06:35:59;13.70;99.90
42245;DHT22;27912;51.828;5.688;2023-05-10T06:38:25;13.70;99.90
42245;DHT22;27912;51.828;5.688;2023-05-10T06:40:51;13.60;99.90
42245;DHT22;27912;51.828;5.688;2023-05-10T06:43:16;13.60;99.90
42245;DHT22;27912;51.828;5.688;2023-05-10T06:45:42;13.60;99.90
42245;DHT22;27912;51.828;5.688;2023-05-10T06:48:08;13.60;99.90
42245;DHT22;27912;51.828;5.688;2023-05-10T06:50:33;13.60;99.90
42245;DHT22;27912;51.828;5.688;2023-05-10T06:52:59;13.60;99.90
42245;DHT22;27912;51.828;5.688;2023-05-10T06:55:25;13.60;99.90
42245;DHT22;27912;51.828;5.688;2023-05-10T06:57:51;13.60;99.90
42245;DHT22;27912;51.828;5.688;2023-05-10T07:00:18;13.60;99.90
42245;DHT22;27912;51.828;5.688;2023-05-10T07:02:44;13.60;99.90
42245;DHT22;27912;51.828;5.688;2023-05-10T07:05:09;13.60;99.90
42245;DHT22;27912;51.828;5.688;2023-05-10T07:07:35;13.60;99.90
42245;DHT22;27912;51.828;5.688;2023-05-10T07:10:01;13.70;99.90
42245;DHT22;27912;51.828;5.688;2023-05-10T07:12:27;13.70;99.90
42245;DHT22;27912;51.828;5.688;2023-05-10T07:14:52;13.70;99.90
42245;DHT22;27912;51.828;5.688;2023-05-10T07:17:18;13.70;99.90
42245;DHT22;27912;51.828;5.688;2023-05-10T07:19:44;13.70;99.90
42245;DHT22;27912;51.828;5.688;2023-05-10T07:22:09;13.70;99.90
42245;DHT22;27912;51.828;5.688;2023-05-10T07:24:35;13.70;99.90
42245;DHT22;27912;51.828;5.688;2023-05-10T07:27:01;13.70;99.90
42245;DHT22;27912;51.828;5.688;2023-05-10T07:29:26;13.80;99.90
42245;DHT22;27912;51.828;5.688;2023-05-10T07:31:52;13.70;99.90
42245;DHT22;27912;51.828;5.688;2023-05-10T07:34:18;13.80;99.90
42245;DHT22;27912;51.828;5.688;2023-05-10T07:36:43;13.80;99.90
42245;DHT22;27912;51.828;5.688;2023-05-10T07:39:09;13.90;99.90
42245;DHT22;27912;51.828;5.688;2023-05-10T07:41:35;13.90;99.90
42245;DHT22;27912;51.828;5.688;2023-05-10T07:44:03;13.90;99.90
42245;DHT22;27912;51.828;5.688;2023-05-10T07:46:29;14.00;99.90
42245;DHT22;27912;51.828;5.688;2023-05-10T07:48:55;14.20;99.90
42245;DHT22;27912;51.828;5.688;2023-05-10T07:51:21;14.20;99.90
42245;DHT22;27912;51.828;5.688;2023-05-10T07:53:46;14.20;99.90
42245;DHT22;27912;51.828;5.688;2023-05-10T07:56:29;14.20;99.90
42245;DHT22;27912;51.828;5.688;2023-05-10T07:58:56;14.20;99.90
42245;DHT22;27912;51.828;5.688;2023-05-10T08:01:22;14.20;99.90
42245;DHT22;27912;51.828;5.688;2023-05-10T08:03:48;14.30;99.90
42245;DHT22;27912;51.828;5.688;2023-05-10T08:06:14;14.40;99.90
42245;DHT22;27912;51.828;5.688;2023-05-10T08:08:41;14.60;99.90
42245;DHT22;27912;51.828;5.688;2023-05-10T08:11:07;14.70;99.90
42245;DHT22;27912;51.828;5.688;2023-05-10T08:13:32;14.90;99.90
42245;DHT22;27912;51.828;5.688;2023-05-10T08:15:58;14.90;99.90
42245;DHT22;27912;51.828;5.688;2023-05-10T08:18:24;14.90;99.90
42245;DHT22;27912;51.828;5.688;2023-05-10T08:20:50;14.80;99.90
42245;DHT22;27912;51.828;5.688;2023-05-10T08:23:15;14.60;99.90
42245;DHT22;27912;51.828;5.688;2023-05-10T08:25:41;14.60;99.90
42245;DHT22;27912;51.828;5.688;2023-05-10T08:28:09;14.50;99.90
42245;DHT22;27912;51.828;5.688;2023-05-10T08:30:35;14.50;99.90
42245;DHT22;27912;51.828;5.688;2023-05-10T08:33:00;14.40;99.90
42245;DHT22;27912;51.828;5.688;2023-05-10T08:35:26;14.30;99.90
42245;DHT22;27912;51.828;5.688;2023-05-10T08:37:51;14.20;99.90
42245;DHT22;27912;51.828;5.688;2023-05-10T08:40:19;14.10;99.90
42245;DHT22;27912;51.828;5.688;2023-05-10T08:43:12;14.00;99.90
42245;DHT22;27912;51.828;5.688;2023-05-10T08:45:41;13.90;99.90
42245;DHT22;27912;51.828;5.688;2023-05-10T08:48:09;13.90;99.90
42245;DHT22;27912;51.828;5.688;2023-05-10T08:50:36;13.90;99.90
42245;DHT22;27912;51.828;5.688;2023-05-10T08:53:05;13.90;99.90
42245;DHT22;27912;51.828;5.688;2023-05-10T08:55:33;14.00;99.90
42245;DHT22;27912;51.828;5.688;2023-05-10T08:58:03;13.90;99.90
42245;DHT22;27912;51.828;5.688;2023-05-10T09:00:29;14.00;99.90
42245;DHT22;27912;51.828;5.688;2023-05-10T09:02:56;14.10;99.90
42245;DHT22;27912;51.828;5.688;2023-05-10T09:05:23;14.10;99.90
42245;DHT22;27912;51.828;5.688;2023-05-10T09:07:48;14.20;99.90
42245;DHT22;27912;51.828;5.688;2023-05-10T09:10:14;14.30;99.90
42245;DHT22;27912;51.828;5.688;2023-05-10T09:12:40;14.40;99.90
42245;DHT22;27912;51.828;5.688;2023-05-10T09:15:07;14.50;99.90
42245;DHT22;27912;51.828;5.688;2023-05-10T09:17:38;14.60;99.90
42245;DHT22;27912;51.828;5.688;2023-05-10T09:20:06;14.50;99.90
42245;DHT22;27912;51.828;5.688;2023-05-10T09:22:33;14.60;99.90
42245;DHT22;27912;51.828;5.688;2023-05-10T09:25:15;14.60;99.90
42245;DHT22;27912;51.828;5.688;2023-05-10T09:27:45;14.70;99.90
42245;DHT22;27912;51.828;5.688;2023-05-10T09:30:16;14.70;99.90
42245;DHT22;27912;51.828;5.688;2023-05-10T09:32:44;14.90;99.90
42245;DHT22;27912;51.828;5.688;2023-05-10T09:35:15;15.10;99.90
42245;DHT22;27912;51.828;5.688;2023-05-10T09:37:42;15.20;99.90
42245;DHT22;27912;51.828;5.688;2023-05-10T09:40:12;15.40;99.90
42245;DHT22;27912;51.828;5.688;2023-05-10T09:42:38;15.50;99.90
42245;DHT22;27912;51.828;5.688;2023-05-10T09:45:04;15.60;99.90
42245;DHT22;27912;51.828;5.688;2023-05-10T09:47:37;15.80;99.90
42245;DHT22;27912;51.828;5.688;2023-05-10T09:50:03;15.90;99.90
42245;DHT22;27912;51.828;5.688;2023-05-10T09:52:55;15.90;99.90
42245;DHT22;27912;51.828;5.688;2023-05-10T09:58:03;15.80;99.90
42245;DHT22;27912;51.828;5.688;2023-05-10T10:00:40;15.60;99.90
42245;DHT22;27912;51.828;5.688;2023-05-10T10:03:07;15.70;99.90
42245;DHT22;27912;51.828;5.688;2023-05-10T10:05:40;15.80;99.90
42245;DHT22;27912;51.828;5.688;2023-05-10T10:08:06;16.10;99.90
42245;DHT22;27912;51.828;5.688;2023-05-10T10:10:33;16.50;99.90
42245;DHT22;27912;51.828;5.688;2023-05-10T10:12:59;16.90;99.90
42245;DHT22;27912;51.828;5.688;2023-05-10T10:15:25;17.10;99.90
42245;DHT22;27912;51.828;5.688;2023-05-10T10:17:52;17.30;99.90
42245;DHT22;27912;51.828;5.688;2023-05-10T10:20:20;17.50;99.90
42245;DHT22;27912;51.828;5.688;2023-05-10T10:22:46;17.60;99.90
42245;DHT22;27912;51.828;5.688;2023-05-10T10:25:14;17.70;99.90
42245;DHT22;27912;51.828;5.688;2023-05-10T10:30:25;17.60;99.90
42245;DHT22;27912;51.828;5.688;2023-05-10T10:33:28;17.50;99.90
42245;DHT22;27912;51.828;5.688;2023-05-10T10:35:57;17.50;99.90
42245;DHT22;27912;51.828;5.688;2023-05-10T10:38:24;17.40;99.90
42245;DHT22;27912;51.828;5.688;2023-05-10T10:41:09;17.30;99.90
42245;DHT22;27912;51.828;5.688;2023-05-10T10:43:35;17.40;99.90
42245;DHT22;27912;51.828;5.688;2023-05-10T10:46:14;17.50;99.90
42245;DHT22;27912;51.828;5.688;2023-05-10T10:49:09;17.80;99.90
42245;DHT22;27912;51.828;5.688;2023-05-10T10:51:39;17.90;99.90
42245;DHT22;27912;51.828;5.688;2023-05-10T10:54:11;18.00;99.90
42245;DHT22;27912;51.828;5.688;2023-05-10T10:56:36;18.00;99.90
42245;DHT22;27912;51.828;5.688;2023-05-10T10:59:02;18.10;99.90
42245;DHT22;27912;51.828;5.688;2023-05-10T11:01:33;18.20;99.90
42245;DHT22;27912;51.828;5.688;2023-05-10T11:06:29;18.20;99.90
42245;DHT22;27912;51.828;5.688;2023-05-10T11:08:57;18.20;99.90
42245;DHT22;27912;51.828;5.688;2023-05-10T11:11:23;18.10;99.90
42245;DHT22;27912;51.828;5.688;2023-05-10T11:13:49;18.20;99.90
42245;DHT22;27912;51.828;5.688;2023-05-10T11:16:19;18.30;99.90
42245;DHT22;27912;51.828;5.688;2023-05-10T11:19:09;18.40;99.90
42245;DHT22;27912;51.828;5.688;2023-05-10T11:21:51;18.50;99.90
42245;DHT22;27912;51.828;5.688;2023-05-10T11:24:37;18.60;99.90
42245;DHT22;27912;51.828;5.688;2023-05-10T11:27:03;18.50;99.90
42245;DHT22;27912;51.828;5.688;2023-05-10T11:29:28;18.50;99.90
42245;DHT22;27912;51.828;5.688;2023-05-10T11:31:57;18.30;99.90
42245;DHT22;27912;51.828;5.688;2023-05-10T11:34:28;18.30;99.90
42245;DHT22;27912;51.828;5.688;2023-05-10T11:36:56;18.30;99.90
42245;DHT22;27912;51.828;5.688;2023-05-10T11:39:26;18.20;99.90
42245;DHT22;27912;51.828;5.688;2023-05-10T11:41:52;18.30;99.90
42245;DHT22;27912;51.828;5.688;2023-05-10T11:44:18;18.20;99.90
42245;DHT22;27912;51.828;5.688;2023-05-10T11:46:44;18.20;99.90
42245;DHT22;27912;51.828;5.688;2023-05-10T11:49:10;18.30;99.90
42245;DHT22;27912;51.828;5.688;2023-05-10T11:51:36;18.20;99.90
42245;DHT22;27912;51.828;5.688;2023-05-10T11:54:05;18.20;99.90
42245;DHT22;27912;51.828;5.688;2023-05-10T11:56:32;18.20;99.90
42245;DHT22;27912;51.828;5.688;2023-05-10T11:58:58;18.20;99.90
42245;DHT22;27912;51.828;5.688;2023-05-10T12:01:26;18.30;99.90
42245;DHT22;27912;51.828;5.688;2023-05-10T12:03:55;18.40;99.90
42245;DHT22;27912;51.828;5.688;2023-05-10T12:06:30;18.40;99.90
42245;DHT22;27912;51.828;5.688;2023-05-10T12:08:57;18.50;99.90
42245;DHT22;27912;51.828;5.688;2023-05-10T12:11:27;18.60;99.90
42245;DHT22;27912;51.828;5.688;2023-05-10T12:13:54;18.60;99.90
42245;DHT22;27912;51.828;5.688;2023-05-10T12:18:53;18.00;99.90
42245;DHT22;27912;51.828;5.688;2023-05-10T12:21:20;17.70;99.90
42245;DHT22;27912;51.828;5.688;2023-05-10T12:23:47;17.40;99.90
42245;DHT22;27912;51.828;5.688;2023-05-10T12:26:14;17.20;99.90
42245;DHT22;27912;51.828;5.688;2023-05-10T12:28:39;16.90;99.90
42245;DHT22;27912;51.828;5.688;2023-05-10T12:31:06;16.80;99.90
42245;DHT22;27912;51.828;5.688;2023-05-10T12:33:43;16.70;99.90
42245;DHT22;27912;51.828;5.688;2023-05-10T12:36:10;16.60;99.90
42245;DHT22;27912;51.828;5.688;2023-05-10T12:38:38;16.50;99.90
42245;DHT22;27912;51.828;5.688;2023-05-10T12:41:11;16.50;99.90
42245;DHT22;27912;51.828;5.688;2023-05-10T12:43:38;16.60;99.90
42245;DHT22;27912;51.828;5.688;2023-05-10T12:46:08;16.70;99.90
42245;DHT22;27912;51.828;5.688;2023-05-10T12:48:35;16.80;99.90
42245;DHT22;27912;51.828;5.688;2023-05-10T12:51:02;16.90;99.90
42245;DHT22;27912;51.828;5.688;2023-05-10T12:53:27;16.90;99.90
42245;DHT22;27912;51.828;5.688;2023-05-10T12:55:53;16.90;99.90
42245;DHT22;27912;51.828;5.688;2023-05-10T12:58:19;16.80;99.90
42245;DHT22;27912;51.828;5.688;2023-05-10T13:00:45;16.80;99.90
42245;DHT22;27912;51.828;5.688;2023-05-10T13:03:10;16.80;99.90
42245;DHT22;27912;51.828;5.688;2023-05-10T13:05:36;16.70;99.90
42245;DHT22;27912;51.828;5.688;2023-05-10T13:08:02;16.60;99.90
42245;DHT22;27912;51.828;5.688;2023-05-10T13:10:29;16.60;99.90
42245;DHT22;27912;51.828;5.688;2023-05-10T13:12:55;16.60;99.90
42245;DHT22;27912;51.828;5.688;2023-05-10T13:15:21;16.60;99.90
42245;DHT22;27912;51.828;5.688;2023-05-10T13:17:46;16.60;99.90
42245;DHT22;27912;51.828;5.688;2023-05-10T13:20:12;16.70;99.90
42245;DHT22;27912;51.828;5.688;2023-05-10T13:22:37;16.80;99.90
42245;DHT22;27912;51.828;5.688;2023-05-10T13:25:03;16.80;99.90
42245;DHT22;27912;51.828;5.688;2023-05-10T13:27:29;16.90;99.90
42245;DHT22;27912;51.828;5.688;2023-05-10T13:29:54;16.90;99.90
42245;DHT22;27912;51.828;5.688;2023-05-10T13:32:20;17.00;99.90
42245;DHT22;27912;51.828;5.688;2023-05-10T13:34:46;17.00;99.90
42245;DHT22;27912;51.828;5.688;2023-05-10T13:37:11;17.00;99.90
42245;DHT22;27912;51.828;5.688;2023-05-10T13:39:37;16.90;99.90
42245;DHT22;27912;51.828;5.688;2023-05-10T13:42:05;16.80;99.90
42245;DHT22;27912;51.828;5.688;2023-05-10T13:44:30;16.80;99.90
42245;DHT22;27912;51.828;5.688;2023-05-10T13:46:56;16.60;99.90
42245;DHT22;27912;51.828;5.688;2023-05-10T13:49:22;16.50;99.90
42245;DHT22;27912;51.828;5.688;2023-05-10T13:51:48;16.50;99.90
42245;DHT22;27912;51.828;5.688;2023-05-10T13:54:13;16.50;99.90
42245;DHT22;27912;51.828;5.688;2023-05-10T13:56:39;16.50;99.90
42245;DHT22;27912;51.828;5.688;2023-05-10T13:59:06;16.50;99.90
42245;DHT22;27912;51.828;5.688;2023-05-10T14:01:33;16.40;99.90
42245;DHT22;27912;51.828;5.688;2023-05-10T14:03:59;16.40;99.90
42245;DHT22;27912;51.828;5.688;2023-05-10T14:06:25;16.30;99.90
42245;DHT22;27912;51.828;5.688;2023-05-10T14:08:50;16.30;99.90
42245;DHT22;27912;51.828;5.688;2023-05-10T14:11:16;16.40;99.90
42245;DHT22;27912;51.828;5.688;2023-05-10T14:13:41;16.50;99.90
42245;DHT22;27912;51.828;5.688;2023-05-10T14:16:07;16.70;99.90
42245;DHT22;27912;51.828;5.688;2023-05-10T14:18:32;16.90;99.90
42245;DHT22;27912;51.828;5.688;2023-05-10T14:20:58;17.00;99.90
42245;DHT22;27912;51.828;5.688;2023-05-10T14:23:23;17.10;99.90
42245;DHT22;27912;51.828;5.688;2023-05-10T14:25:50;17.10;99.90
42245;DHT22;27912;51.828;5.688;2023-05-10T14:28:19;17.10;99.90
42245;DHT22;27912;51.828;5.688;2023-05-10T14:30:46;17.10;99.90
42245;DHT22;27912;51.828;5.688;2023-05-10T14:33:12;17.10;99.90
42245;DHT22;27912;51.828;5.688;2023-05-10T14:35:38;17.10;99.90
42245;DHT22;27912;51.828;5.688;2023-05-10T14:38:04;17.20;99.90
42245;DHT22;27912;51.828;5.688;2023-05-10T14:40:30;17.20;99.90
42245;DHT22;27912;51.828;5.688;2023-05-10T14:42:56;17.30;99.90
42245;DHT22;27912;51.828;5.688;2023-05-10T14:45:22;17.50;99.90
42245;DHT22;27912;51.828;5.688;2023-05-10T14:47:49;17.70;99.90
42245;DHT22;27912;51.828;5.688;2023-05-10T14:50:14;17.80;99.90
42245;DHT22;27912;51.828;5.688;2023-05-10T14:52:41;17.80;99.90
42245;DHT22;27912;51.828;5.688;2023-05-10T14:55:07;17.80;99.90
42245;DHT22;27912;51.828;5.688;2023-05-10T14:57:33;17.80;99.90
42245;DHT22;27912;51.828;5.688;2023-05-10T14:59:58;17.70;99.90
42245;DHT22;27912;51.828;5.688;2023-05-10T15:02:24;17.60;99.90
42245;DHT22;27912;51.828;5.688;2023-05-10T15:04:50;17.60;99.90
42245;DHT22;27912;51.828;5.688;2023-05-10T15:07:16;17.80;99.90
42245;DHT22;27912;51.828;5.688;2023-05-10T15:09:44;18.10;99.90
42245;DHT22;27912;51.828;5.688;2023-05-10T15:12:09;18.30;99.90
42245;DHT22;27912;51.828;5.688;2023-05-10T15:14:35;18.30;99.90
42245;DHT22;27912;51.828;5.688;2023-05-10T15:17:02;18.40;99.90
42245;DHT22;27912;51.828;5.688;2023-05-10T15:19:27;18.50;99.90
42245;DHT22;27912;51.828;5.688;2023-05-10T15:21:54;18.60;99.90
42245;DHT22;27912;51.828;5.688;2023-05-10T15:24:21;18.60;99.90
42245;DHT22;27912;51.828;5.688;2023-05-10T15:26:46;18.60;99.90
42245;DHT22;27912;51.828;5.688;2023-05-10T15:29:12;18.60;99.90
42245;DHT22;27912;51.828;5.688;2023-05-10T15:31:48;18.70;99.90
42245;DHT22;27912;51.828;5.688;2023-05-10T15:34:14;18.80;99.90
42245;DHT22;27912;51.828;5.688;2023-05-10T15:36:40;18.70;99.90
42245;DHT22;27912;51.828;5.688;2023-05-10T15:39:05;18.70;99.90
42245;DHT22;27912;51.828;5.688;2023-05-10T15:41:31;18.50;99.90
42245;DHT22;27912;51.828;5.688;2023-05-10T15:43:58;18.20;99.90
42245;DHT22;27912;51.828;5.688;2023-05-10T15:46:27;18.10;99.90
42245;DHT22;27912;51.828;5.688;2023-05-10T15:48:53;18.00;99.90
42245;DHT22;27912;51.828;5.688;2023-05-10T15:51:19;17.80;99.90
42245;DHT22;27912;51.828;5.688;2023-05-10T15:53:45;17.80;99.90
42245;DHT22;27912;51.828;5.688;2023-05-10T15:56:10;17.80;99.90
42245;DHT22;27912;51.828;5.688;2023-05-10T15:58:37;17.80;99.90